Time;durP1;ratioP1;P1;durP2;ratioP2;P2;SDS_P1;SDS_P2;PMS_P1;PMS_P2;Temp;Humidity;BMP_temperature;BMP_pressure;BME280_temperature;BME280_humidity;BME280_pressure;Samples;Min_cycle;Max_cycle;Signal;HPM_P1;HPM_P2
2022/09/01 00:01:53;;;;;;;2.97;1.30;;;16.40;99.90;;;;;;5031981;28;20409;-68
2022/09/01 00:04:25;;;;;;;3.85;1.10;;;16.30;99.90;;;;;;5031682;28;20043;-68
2022/09/01 00:06:53;;;;;;;2.75;1.05;;;16.30;99.90;;;;;;5031653;28;20084;-68
2022/09/01 00:09:21;;;;;;;4.10;1.10;;;16.20;99.90;;;;;;5031865;28;20040;-68
2022/09/01 00:11:49;;;;;;;1.95;0.93;;;16.20;99.90;;;;;;5031635;28;20048;-68
2022/09/01 00:14:15;;;;;;;3.22;1.30;;;16.20;99.90;;;;;;5031612;28;20072;-68
2022/09/01 00:16:40;;;;;;;4.40;1.40;;;16.20;99.90;;;;;;5031809;28;20076;-68
2022/09/01 00:19:06;;;;;;;3.75;1.30;;;16.20;99.90;;;;;;5031764;28;20422;-68
2022/09/01 00:21:35;;;;;;;4.70;1.13;;;16.20;99.90;;;;;;5034483;28;20481;-68
2022/09/01 00:24:02;;;;;;;3.78;1.10;;;16.20;99.90;;;;;;5035713;28;20037;-68
2022/09/01 00:26:28;;;;;;;2.45;1.00;;;16.10;99.90;;;;;;5035551;28;20176;-68
2022/09/01 00:28:53;;;;;;;2.95;1.05;;;16.10;99.90;;;;;;5035548;28;20502;-68
2022/09/01 00:31:20;;;;;;;3.83;1.02;;;16.10;99.90;;;;;;5035348;28;20488;-68
2022/09/01 00:33:47;;;;;;;3.35;1.10;;;16.10;99.90;;;;;;5035304;28;20037;-68
2022/09/01 00:36:14;;;;;;;2.05;1.08;;;16.10;99.90;;;;;;5035181;28;20401;-68
2022/09/01 00:38:40;;;;;;;5.85;1.33;;;16.00;99.90;;;;;;5035285;28;20034;-68
2022/09/01 00:41:06;;;;;;;3.85;1.00;;;16.00;99.90;;;;;;5035112;28;20079;-68
2022/09/01 00:43:43;;;;;;;3.22;0.93;;;16.00;99.90;;;;;;5036891;28;20039;-68
2022/09/01 00:46:15;;;;;;;2.88;0.85;;;15.90;99.90;;;;;;5035016;28;20103;-68
2022/09/01 00:48:41;;;;;;;2.67;1.00;;;15.90;99.90;;;;;;5035235;28;20095;-68
2022/09/01 00:51:09;;;;;;;3.70;1.00;;;15.90;99.90;;;;;;5035256;28;20050;-68
2022/09/01 00:53:36;;;;;;;3.25;0.90;;;15.90;99.90;;;;;;5035100;28;20056;-68
2022/09/01 00:56:03;;;;;;;3.78;1.10;;;15.80;99.90;;;;;;5034917;28;20060;-68
2022/09/01 00:58:30;;;;;;;3.38;1.40;;;15.90;99.90;;;;;;5034769;28;20494;-68
2022/09/01 01:00:55;;;;;;;3.42;1.00;;;15.90;99.90;;;;;;5035094;28;20080;-68
2022/09/01 01:03:22;;;;;;;4.45;1.08;;;15.80;99.90;;;;;;5034757;28;20577;-68
2022/09/01 01:05:56;;;;;;;2.30;0.95;;;15.80;99.90;;;;;;5034768;28;20056;-68
2022/09/01 01:08:35;;;;;;;4.53;0.90;;;15.80;99.90;;;;;;5034574;28;20045;-68
2022/09/01 01:11:08;;;;;;;5.80;1.17;;;15.70;99.90;;;;;;5034691;28;20037;-68
2022/09/01 01:13:57;;;;;;;3.70;0.98;;;15.70;99.90;;;;;;5034882;28;20064;-68
2022/09/01 01:16:25;;;;;;;3.55;0.90;;;15.70;99.90;;;;;;5034528;28;20099;-68
2022/09/01 01:18:52;;;;;;;5.00;1.13;;;15.60;99.90;;;;;;5034678;28;20049;-68
2022/09/01 01:24:24;;;;;;;2.38;0.70;;;15.60;99.90;;;;;;5034666;28;20088;-68
2022/09/01 01:26:50;;;;;;;3.88;1.00;;;15.50;99.90;;;;;;5017912;28;20049;-68
2022/09/01 01:29:16;;;;;;;2.17;0.90;;;15.50;99.90;;;;;;5034427;28;20504;-68
2022/09/01 01:31:42;;;;;;;2.10;0.90;;;15.50;99.90;;;;;;5033219;28;20049;-68
2022/09/01 01:34:08;;;;;;;2.05;1.30;;;15.50;99.90;;;;;;5034101;28;20041;-68
2022/09/01 01:36:36;;;;;;;1.60;0.90;;;15.50;99.90;;;;;;5034087;28;20045;-68
2022/09/01 01:39:11;;;;;;;3.35;0.95;;;15.50;99.90;;;;;;5033843;28;20076;-68
2022/09/01 01:41:41;;;;;;;2.85;0.90;;;15.40;99.90;;;;;;5034037;28;20045;-68
2022/09/01 01:44:07;;;;;;;2.05;0.98;;;15.40;99.90;;;;;;5034262;28;20408;-68
2022/09/01 01:46:35;;;;;;;2.72;1.13;;;15.30;99.90;;;;;;5034125;28;20045;-68
2022/09/01 01:49:03;;;;;;;3.03;0.73;;;15.30;99.90;;;;;;5033919;28;20445;-68
2022/09/01 01:51:31;;;;;;;2.40;1.05;;;15.30;99.90;;;;;;5033875;28;20045;-68
2022/09/01 01:54:00;;;;;;;3.70;1.10;;;15.30;99.90;;;;;;5034073;28;20117;-68
2022/09/01 01:56:26;;;;;;;4.97;0.85;;;15.30;99.90;;;;;;5033743;28;20033;-68
2022/09/01 01:58:55;;;;;;;4.20;0.80;;;15.20;99.90;;;;;;5033592;28;20095;-68
2022/09/01 02:01:27;;;;;;;1.50;1.10;;;15.20;99.90;;;;;;5033962;28;20517;-68
2022/09/01 02:03:55;;;;;;;5.32;1.10;;;15.20;99.90;;;;;;5033696;28;20041;-68
2022/09/01 02:06:24;;;;;;;3.38;0.80;;;15.10;99.90;;;;;;5033497;28;20037;-68
2022/09/01 02:08:57;;;;;;;4.00;1.00;;;15.10;99.90;;;;;;5033700;28;20044;-68
2022/09/01 02:11:25;;;;;;;3.67;1.05;;;15.10;99.90;;;;;;5033536;28;20050;-68
2022/09/01 02:13:55;;;;;;;1.70;0.90;;;15.10;99.90;;;;;;5034619;28;20491;-68
2022/09/01 02:16:21;;;;;;;4.00;0.90;;;15.00;99.90;;;;;;5033424;28;20041;-68
2022/09/01 02:18:47;;;;;;;3.42;0.85;;;15.00;99.90;;;;;;5033232;28;20091;-68
2022/09/01 02:21:18;;;;;;;2.28;0.82;;;15.00;99.90;;;;;;5033297;28;20120;-68
2022/09/01 02:23:46;;;;;;;3.22;1.00;;;14.90;99.90;;;;;;5033577;28;20045;-68
2022/09/01 02:26:11;;;;;;;2.42;1.15;;;14.90;99.90;;;;;;5033205;28;20033;-68
2022/09/01 02:28:41;;;;;;;3.30;1.00;;;14.90;99.90;;;;;;5032932;28;20128;-68
2022/09/01 02:31:08;;;;;;;2.47;0.95;;;14.90;99.90;;;;;;5033120;28;20056;-68
2022/09/01 02:33:35;;;;;;;2.65;0.80;;;14.80;99.90;;;;;;5033047;28;20049;-68
2022/09/01 02:36:06;;;;;;;1.75;0.85;;;14.90;99.90;;;;;;5032997;28;20083;-68
2022/09/01 02:38:32;;;;;;;1.30;0.80;;;14.80;99.90;;;;;;5033028;28;20045;-68
2022/09/01 02:41:00;;;;;;;2.03;0.98;;;14.80;99.90;;;;;;5032882;28;20453;-68
2022/09/01 02:43:28;;;;;;;1.42;1.00;;;14.80;99.90;;;;;;5032711;28;20045;-68
2022/09/01 02:45:56;;;;;;;2.00;0.80;;;14.70;99.90;;;;;;5033097;28;20053;-68
2022/09/01 02:48:37;;;;;;;3.03;0.90;;;14.70;99.90;;;;;;5033389;28;20103;-68
2022/09/01 02:51:07;;;;;;;2.33;0.95;;;14.70;99.90;;;;;;5032749;28;20585;-68
2022/09/01 02:53:33;;;;;;;3.78;0.85;;;14.70;99.90;;;;;;5032623;28;20092;-68
2022/09/01 02:56:01;;;;;;;3.38;1.05;;;14.70;99.90;;;;;;5032604;28;20044;-68
2022/09/01 02:58:28;;;;;;;1.95;0.90;;;14.70;99.90;;;;;;5032732;28;20041;-68
2022/09/01 03:00:56;;;;;;;3.88;0.90;;;14.70;99.90;;;;;;5032505;28;20124;-68
2022/09/01 03:03:23;;;;;;;5.15;0.80;;;14.70;99.90;;;;;;5032735;28;20045;-68
2022/09/01 03:05:54;;;;;;;2.88;1.02;;;14.70;99.90;;;;;;5032439;28;20498;-68
2022/09/01 03:08:20;;;;;;;3.70;1.00;;;14.70;99.90;;;;;;5032240;28;20052;-68
2022/09/01 03:10:46;;;;;;;3.83;1.00;;;14.70;99.90;;;;;;5032657;28;20068;-68
2022/09/01 03:13:16;;;;;;;1.75;0.88;;;14.70;99.90;;;;;;5032406;28;20502;-68
2022/09/01 03:15:43;;;;;;;2.22;0.88;;;14.60;99.90;;;;;;5032527;28;20210;-68
2022/09/01 03:18:10;;;;;;;5.75;1.20;;;14.60;99.90;;;;;;5032173;28;20042;-68
2022/09/01 03:20:42;;;;;;;4.43;1.20;;;14.60;99.90;;;;;;5032206;28;20124;-68
2022/09/01 03:23:11;;;;;;;3.58;0.90;;;14.60;99.90;;;;;;5016037;28;20056;-68
2022/09/01 03:25:37;;;;;;;2.55;0.98;;;14.60;99.90;;;;;;5032122;28;20049;-68
2022/09/01 03:28:04;;;;;;;2.00;1.02;;;14.50;99.90;;;;;;5032455;28;20405;-68
2022/09/01 03:30:31;;;;;;;4.03;1.42;;;14.50;99.90;;;;;;5032051;28;20529;-68
2022/09/01 03:32:57;;;;;;;2.28;1.02;;;14.50;99.90;;;;;;5032038;28;20045;-68
2022/09/01 03:35:24;;;;;;;1.60;1.00;;;14.50;99.90;;;;;;5032243;28;20510;-68
2022/09/01 03:37:51;;;;;;;2.50;1.15;;;14.50;99.90;;;;;;5031853;28;20048;-68
2022/09/01 03:40:17;;;;;;;4.38;1.10;;;14.40;99.90;;;;;;5032534;28;20049;-68
2022/09/01 03:42:43;;;;;;;5.82;1.48;;;14.40;99.90;;;;;;5032213;28;20049;-68
2022/09/01 03:45:14;;;;;;;2.90;1.02;;;14.40;99.90;;;;;;5033145;28;20033;-68
2022/09/01 03:47:42;;;;;;;1.95;1.20;;;14.40;99.90;;;;;;5031797;28;20057;-68
2022/09/01 03:50:19;;;;;;;2.75;1.00;;;14.30;99.90;;;;;;5031875;28;20075;-68
2022/09/01 03:52:48;;;;;;;2.85;1.00;;;14.30;99.90;;;;;;5031822;28;20041;-68
2022/09/01 03:55:22;;;;;;;2.92;1.25;;;14.30;99.90;;;;;;5034405;28;20401;-68
2022/09/01 03:57:52;;;;;;;3.95;1.30;;;14.30;99.90;;;;;;5038347;28;20563;-68
2022/09/01 04:00:21;;;;;;;2.47;1.08;;;14.30;99.90;;;;;;5038429;28;20045;-68
2022/09/01 04:02:49;;;;;;;3.42;1.30;;;14.30;99.90;;;;;;5038348;28;20045;-68
2022/09/01 04:05:23;;;;;;;3.00;1.10;;;14.20;99.90;;;;;;5038326;28;20053;-68
2022/09/01 04:07:50;;;;;;;1.80;0.93;;;14.20;99.90;;;;;;5038213;28;20132;-68
2022/09/01 04:10:17;;;;;;;2.03;1.10;;;14.20;99.90;;;;;;5038190;28;20406;-68
2022/09/01 04:12:43;;;;;;;2.45;1.20;;;14.20;99.90;;;;;;5038531;28;20053;-68
2022/09/01 04:15:10;;;;;;;2.42;1.00;;;14.20;99.90;;;;;;5038513;28;20080;-68
2022/09/01 04:20:20;;;;;;;2.25;1.10;;;14.20;99.90;;;;;;5038482;28;20045;-68
2022/09/01 04:22:47;;;;;;;2.60;1.38;;;14.20;99.90;;;;;;5038190;28;20041;-68
2022/09/01 04:25:14;;;;;;;3.63;0.90;;;14.20;99.90;;;;;;5038370;28;20056;-68
2022/09/01 04:27:40;;;;;;;3.05;1.02;;;14.20;99.90;;;;;;5037950;28;20533;-68
2022/09/01 04:30:09;;;;;;;5.05;1.27;;;14.20;99.90;;;;;;5038087;28;20556;-68
2022/09/01 04:32:39;;;;;;;3.13;1.15;;;14.20;99.90;;;;;;5038375;28;20046;-68
2022/09/01 04:35:06;;;;;;;3.05;1.20;;;14.20;99.90;;;;;;5038041;28;20045;-68
2022/09/01 04:37:34;;;;;;;3.17;1.20;;;14.20;99.90;;;;;;5037727;28;20056;-68
2022/09/01 04:40:00;;;;;;;4.38;1.10;;;14.20;99.90;;;;;;5037964;28;20608;-68
2022/09/01 04:42:28;;;;;;;1.65;0.82;;;14.20;99.90;;;;;;5038282;28;20146;-68
2022/09/01 04:44:56;;;;;;;4.35;1.40;;;14.20;99.90;;;;;;5038000;28;20041;-68
2022/09/01 04:47:28;;;;;;;3.00;1.20;;;14.20;99.90;;;;;;5038393;28;20050;-69
2022/09/01 04:49:57;;;;;;;2.88;1.30;;;14.20;99.90;;;;;;5037957;28;20056;-68
2022/09/01 04:52:23;;;;;;;2.85;1.20;;;14.20;99.90;;;;;;5037871;28;20041;-68
2022/09/01 04:54:49;;;;;;;4.82;1.40;;;14.20;99.90;;;;;;5039148;28;20040;-68
2022/09/01 04:57:15;;;;;;;3.45;1.45;;;14.20;99.90;;;;;;5037926;28;20116;-68
2022/09/01 04:59:42;;;;;;;4.55;1.20;;;14.20;99.90;;;;;;5037745;28;20444;-68
2022/09/01 05:02:08;;;;;;;4.82;1.60;;;14.30;99.90;;;;;;5037791;28;20055;-68
2022/09/01 05:04:35;;;;;;;3.58;1.50;;;14.20;99.90;;;;;;5037807;28;20041;-68
2022/09/01 05:07:03;;;;;;;2.38;1.30;;;14.30;99.90;;;;;;5037255;28;20049;-68
2022/09/01 05:09:34;;;;;;;1.95;1.20;;;14.30;99.90;;;;;;5034874;28;20080;-68
2022/09/01 05:12:09;;;;;;;2.25;1.20;;;14.30;99.90;;;;;;5034629;28;20368;-68
2022/09/01 05:14:41;;;;;;;3.50;1.40;;;14.30;99.90;;;;;;5034608;28;20049;-68
2022/09/01 05:17:09;;;;;;;2.33;1.00;;;14.30;99.90;;;;;;5034814;28;20142;-68
2022/09/01 05:19:46;;;;;;;4.55;1.08;;;14.30;99.90;;;;;;5034602;28;20041;-68
2022/09/01 05:22:15;;;;;;;2.28;1.35;;;14.30;99.90;;;;;;5034479;28;20414;-68
2022/09/01 05:24:40;;;;;;;4.03;1.25;;;14.30;99.90;;;;;;5034388;28;20050;-68
2022/09/01 05:27:07;;;;;;;3.00;1.60;;;14.30;99.90;;;;;;5034381;28;20179;-69
2022/09/01 05:29:37;;;;;;;2.53;1.10;;;14.30;99.90;;;;;;5035238;28;20163;-68
2022/09/01 05:32:08;;;;;;;2.58;1.20;;;14.30;99.90;;;;;;5034213;28;20056;-68
2022/09/01 05:34:36;;;;;;;3.22;1.30;;;14.30;99.90;;;;;;5034350;28;20045;-68
2022/09/01 05:37:04;;;;;;;3.88;1.10;;;14.30;99.90;;;;;;5033949;28;20045;-69
2022/09/01 05:39:30;;;;;;;1.40;1.00;;;14.40;99.90;;;;;;5034073;28;20506;-68
2022/09/01 05:41:57;;;;;;;4.53;1.30;;;14.40;99.90;;;;;;5035409;28;20041;-68
2022/09/01 05:44:23;;;;;;;6.03;1.10;;;14.40;99.90;;;;;;5033998;28;20497;-68
2022/09/01 05:46:49;;;;;;;4.85;1.15;;;14.50;99.90;;;;;;5033887;28;20091;-68
2022/09/01 05:49:17;;;;;;;4.22;1.30;;;14.50;99.90;;;;;;5034135;28;20041;-68
2022/09/01 05:51:50;;;;;;;2.08;1.05;;;14.50;99.90;;;;;;5033882;28;20088;-68
2022/09/01 05:54:20;;;;;;;3.55;1.35;;;14.50;99.90;;;;;;5033827;28;20042;-68
2022/09/01 05:56:45;;;;;;;3.47;1.40;;;14.60;99.90;;;;;;5033844;28;20124;-68
2022/09/01 05:59:13;;;;;;;2.42;1.20;;;14.60;99.90;;;;;;5033679;28;20121;-68
2022/09/01 06:01:40;;;;;;;3.45;1.30;;;14.60;99.90;;;;;;5034544;28;20053;-68
2022/09/01 06:04:08;;;;;;;3.45;1.35;;;14.60;99.90;;;;;;5033645;28;20081;-68
2022/09/01 06:06:45;;;;;;;5.45;1.50;;;14.70;99.90;;;;;;5033641;28;20092;-68
2022/09/01 06:09:12;;;;;;;3.53;1.20;;;14.70;99.90;;;;;;5034015;28;20033;-68
2022/09/01 06:11:39;;;;;;;6.00;1.13;;;14.70;99.90;;;;;;5033461;28;20037;-68
2022/09/01 06:14:07;;;;;;;3.72;1.20;;;14.80;99.90;;;;;;5016978;28;20042;-68
2022/09/01 06:16:34;;;;;;;3.30;1.40;;;14.90;99.90;;;;;;5033648;28;20103;-68
2022/09/01 06:19:00;;;;;;;3.10;1.27;;;14.90;99.90;;;;;;5033984;28;20098;-68
2022/09/01 06:21:27;;;;;;;3.78;1.13;;;15.00;99.90;;;;;;5033549;28;20064;-68
2022/09/01 06:23:55;;;;;;;3.00;1.08;;;15.00;99.90;;;;;;5033582;28;20049;-68
2022/09/01 06:26:31;;;;;;;1.33;0.98;;;15.10;99.90;;;;;;5033478;28;20513;-68
2022/09/01 06:29:00;;;;;;;3.97;1.23;;;15.20;99.90;;;;;;5033145;28;20041;-68
2022/09/01 06:31:32;;;;;;;2.70;1.15;;;15.30;99.90;;;;;;5033503;28;20096;-68
2022/09/01 06:33:59;;;;;;;;;;;15.30;99.90;;;;;;5033566;28;20486;-68
2022/09/01 06:36:25;;;;;;;5.90;1.35;;;15.30;99.90;;;;;;5033167;28;19917;-68
2022/09/01 06:38:52;;;;;;;3.30;1.10;;;15.30;99.90;;;;;;5032893;28;20040;-68
2022/09/01 06:41:19;;;;;;;3.85;1.20;;;15.30;99.90;;;;;;5033079;28;20041;-68
2022/09/01 06:43:47;;;;;;;2.72;1.45;;;15.40;99.90;;;;;;5033028;28;20046;-68
2022/09/01 06:46:12;;;;;;;2.80;1.17;;;15.50;99.90;;;;;;5033227;28;20041;-68
2022/09/01 06:48:45;;;;;;;8.13;1.20;;;15.50;99.90;;;;;;5032632;28;20134;-68
2022/09/01 06:51:20;;;;;;;3.85;1.20;;;15.60;99.90;;;;;;5033078;28;20103;-68
2022/09/01 06:53:51;;;;;;;8.40;1.15;;;15.60;99.90;;;;;;5032717;28;20090;-68
2022/09/01 06:56:17;;;;;;;1.75;1.10;;;15.70;99.90;;;;;;5032726;28;20042;-68
2022/09/01 06:58:47;;;;;;;3.55;1.10;;;15.80;99.90;;;;;;5032554;28;20045;-68
2022/09/01 07:01:14;;;;;;;2.00;0.90;;;15.80;99.90;;;;;;5016167;28;20037;-68
2022/09/01 07:03:44;;;;;;;2.53;0.98;;;15.90;99.90;;;;;;5032543;28;20037;-68
2022/09/01 07:06:11;;;;;;;4.20;1.13;;;15.90;99.90;;;;;;5033487;28;20045;-68
2022/09/01 07:08:38;;;;;;;3.00;1.08;;;16.00;99.90;;;;;;5032343;28;20052;-68
2022/09/01 07:11:15;;;;;;;5.15;1.27;;;16.10;99.90;;;;;;5032561;28;20045;-68
2022/09/01 07:13:44;;;;;;;5.40;1.25;;;16.20;99.90;;;;;;5032373;28;20091;-68
2022/09/01 07:16:19;;;;;;;2.03;1.20;;;16.30;99.90;;;;;;5032470;28;20091;-68
2022/09/01 07:18:44;;;;;;;2.20;0.90;;;16.40;99.90;;;;;;5032487;28;20041;-68
2022/09/01 07:21:10;;;;;;;2.30;1.00;;;16.40;99.90;;;;;;5032381;28;20111;-69
2022/09/01 07:23:37;;;;;;;4.72;1.08;;;16.50;99.90;;;;;;5032468;28;20052;-68
2022/09/01 07:26:05;;;;;;;6.65;0.95;;;16.60;99.90;;;;;;5032187;28;20124;-68
2022/09/01 07:28:31;;;;;;;3.95;1.13;;;16.70;99.90;;;;;;5032022;28;20092;-69
2022/09/01 07:30:57;;;;;;;2.90;1.17;;;16.80;99.90;;;;;;5031226;28;20049;-69
2022/09/01 07:33:23;;;;;;;2.80;1.02;;;16.90;99.90;;;;;;5032045;28;20044;-69
2022/09/01 07:35:54;;;;;;;3.20;0.85;;;17.00;99.90;;;;;;5032290;28;20120;-69
2022/09/01 07:38:21;;;;;;;8.45;1.80;;;17.10;99.90;;;;;;5031839;28;20047;-69
2022/09/01 07:40:47;;;;;;;4.68;0.88;;;17.30;99.90;;;;;;5031996;28;20072;-69
2022/09/01 07:43:26;;;;;;;6.10;1.10;;;17.30;99.90;;;;;;5031962;28;20064;-69
2022/09/01 07:45:55;;;;;;;1.55;1.00;;;17.50;99.90;;;;;;5015477;28;20046;-69
2022/09/01 07:48:23;;;;;;;4.55;0.98;;;17.60;99.90;;;;;;5031776;28;20053;-69
2022/09/01 07:50:51;;;;;;;3.13;0.80;;;17.70;99.90;;;;;;5031914;28;20037;-69
2022/09/01 07:53:21;;;;;;;3.83;1.17;;;17.70;99.90;;;;;;5032091;28;20120;-69
2022/09/01 07:55:53;;;;;;;2.35;0.98;;;17.90;99.90;;;;;;5031826;28;20038;-69
2022/09/01 07:58:22;;;;;;;2.60;1.00;;;18.00;99.90;;;;;;5031771;28;20037;-69
2022/09/01 08:00:50;;;;;;;2.63;0.73;;;18.20;99.90;;;;;;5032018;28;20624;-69
2022/09/01 08:03:18;;;;;;;1.58;0.60;;;18.30;99.90;;;;;;5032013;28;20057;-69
2022/09/01 08:05:44;;;;;;;3.72;1.10;;;18.50;99.90;;;;;;5031725;28;20128;-69
2022/09/01 08:08:10;;;;;;;2.80;0.88;;;18.60;99.90;;;;;;5032496;28;20050;-70
2022/09/01 08:10:40;;;;;;;3.80;0.90;;;18.80;99.90;;;;;;5031670;28;20414;-69
2022/09/01 08:13:07;;;;;;;3.35;0.95;;;19.00;99.90;;;;;;5031647;28;20567;-69
2022/09/01 08:15:33;;;;;;;2.95;0.80;;;19.10;99.90;;;;;;5031647;28;20127;-69
2022/09/01 08:17:59;;;;;;;2.70;0.98;;;19.30;99.90;;;;;;5031801;28;20080;-69
2022/09/01 08:20:24;;;;;;;4.30;1.00;;;19.40;99.90;;;;;;5031580;28;20076;-69
2022/09/01 08:22:50;;;;;;;3.28;1.00;;;19.60;99.90;;;;;;5031603;28;20085;-69
2022/09/01 08:25:15;;;;;;;8.43;1.52;;;19.80;99.90;;;;;;5033039;28;20045;-69
2022/09/01 08:27:41;;;;;;;4.47;0.80;;;20.00;99.90;;;;;;5031423;28;20045;-69
2022/09/01 08:30:13;;;;;;;3.85;1.05;;;20.20;99.90;;;;;;5031520;28;20037;-69
2022/09/01 08:32:41;;;;;;;2.63;0.60;;;20.30;98.90;;;;;;5031606;28;20087;-69
2022/09/01 08:35:09;;;;;;;2.70;0.70;;;20.50;98.20;;;;;;5031473;28;20052;-70
2022/09/01 08:37:35;;;;;;;4.22;0.60;;;20.70;97.20;;;;;;5031272;28;20037;-69
2022/09/01 08:40:01;;;;;;;2.78;0.70;;;20.90;96.10;;;;;;5015036;28;20095;-69
2022/09/01 08:42:48;;;;;;;1.10;0.70;;;21.10;95.50;;;;;;5034026;28;20568;-69
2022/09/01 08:45:41;;;;;;;1.65;0.70;;;21.20;94.00;;;;;;5035095;28;20076;-69
2022/09/01 08:48:15;;;;;;;3.40;0.80;;;21.40;93.60;;;;;;5018500;28;20048;-70
2022/09/01 08:50:46;;;;;;;1.23;0.60;;;21.60;92.90;;;;;;5035062;28;20038;-69
2022/09/01 08:53:26;;;;;;;2.05;0.40;;;21.80;90.70;;;;;;5035054;28;20045;-73
2022/09/01 08:55:55;;;;;;;1.85;0.50;;;22.00;90.20;;;;;;5034995;28;20041;-70
2022/09/01 08:58:21;;;;;;;2.30;0.73;;;22.20;87.20;;;;;;5034832;28;20045;-69
2022/09/01 09:00:54;;;;;;;3.20;0.60;;;22.40;86.10;;;;;;5036076;28;20091;-69
2022/09/01 09:03:58;;;;;;;4.32;0.93;;;22.60;81.90;;;;;;5034837;28;20116;-69
2022/09/01 09:06:54;;;;;;;2.13;0.70;;;22.80;81.60;;;;;;5035048;28;20045;-69
2022/09/01 09:09:25;;;;;;;4.47;0.70;;;23.00;79.80;;;;;;5034894;28;20056;-69
2022/09/01 09:12:12;;;;;;;2.97;0.70;;;23.20;78.80;;;;;;5034671;28;20446;-69
2022/09/01 09:15:13;;;;;;;3.78;0.60;;;23.30;78.20;;;;;;5034624;28;20033;-69
2022/09/01 09:17:46;;;;;;;3.63;0.90;;;23.50;77.70;;;;;;5034774;28;20049;-69
2022/09/01 09:20:11;;;;;;;2.67;0.47;;;23.70;73.40;;;;;;5034544;28;20049;-69
2022/09/01 09:22:39;;;;;;;2.38;0.50;;;23.80;72.60;;;;;;5034725;28;20050;-69
2022/09/01 09:25:13;;;;;;;2.38;0.57;;;24.10;72.00;;;;;;5034722;28;20053;-69
2022/09/01 09:27:47;;;;;;;1.95;0.50;;;24.20;69.80;;;;;;5034401;28;20046;-70
2022/09/01 09:30:22;;;;;;;2.78;0.55;;;24.30;68.10;;;;;;5034485;28;20120;-69
2022/09/01 09:33:02;;;;;;;2.58;0.65;;;24.40;66.90;;;;;;5034575;28;20037;-69
2022/09/01 09:35:31;;;;;;;2.17;0.68;;;24.60;66.10;;;;;;5034263;28;20041;-69
2022/09/01 09:38:21;;;;;;;3.85;0.60;;;24.60;64.30;;;;;;5033990;28;20502;-70
2022/09/01 09:41:15;;;;;;;3.72;0.70;;;24.80;63.90;;;;;;5034135;28;20041;-69
2022/09/01 09:43:57;;;;;;;1.67;0.50;;;25.00;63.00;;;;;;5034396;28;20037;-69
2022/09/01 09:46:34;;;;;;;2.95;0.50;;;25.10;62.20;;;;;;5034347;28;20104;-69
2022/09/01 09:49:24;;;;;;;4.88;0.60;;;25.30;62.00;;;;;;5033935;28;20049;-69
2022/09/01 09:51:53;;;;;;;3.35;0.60;;;25.40;60.80;;;;;;5034240;28;20045;-69
2022/09/01 09:54:23;;;;;;;2.15;0.55;;;25.50;60.30;;;;;;5033015;28;20042;-69
2022/09/01 09:57:12;;;;;;;3.03;0.60;;;25.60;59.80;;;;;;5033877;28;20041;-69
2022/09/01 09:59:43;;;;;;;3.90;0.38;;;25.80;58.20;;;;;;5033735;28;20037;-66
2022/09/01 10:02:31;;;;;;;1.20;0.50;;;25.90;59.00;;;;;;5033616;28;20042;-66
2022/09/01 10:05:17;;;;;;;2.67;0.90;;;26.20;57.40;;;;;;5033626;28;20406;-66
2022/09/01 10:07:42;;;;;;;1.20;0.50;;;26.50;56.80;;;;;;5033090;28;20054;-67
2022/09/01 10:10:26;;;;;;;2.72;0.60;;;26.40;56.50;;;;;;5033541;28;20033;-67
2022/09/01 10:12:53;;;;;;;3.67;0.70;;;26.50;55.40;;;;;;5033758;28;20103;-67
2022/09/01 10:15:24;;;;;;;4.03;0.50;;;26.40;54.50;;;;;;5033480;28;20046;-67
2022/09/01 10:17:51;;;;;;;1.25;0.50;;;26.50;54.30;;;;;;5033417;28;20498;-67
2022/09/01 10:20:20;;;;;;;1.25;0.35;;;26.60;53.60;;;;;;5033395;28;20045;-67
2022/09/01 10:22:47;;;;;;;1.55;0.60;;;26.70;53.60;;;;;;5033627;28;20124;-66
2022/09/01 10:25:20;;;;;;;1.70;0.50;;;26.80;52.40;;;;;;5033561;28;20049;-66
2022/09/01 10:27:56;;;;;;;4.97;0.52;;;26.90;51.80;;;;;;5033281;28;20068;-67
2022/09/01 10:30:22;;;;;;;3.25;0.60;;;27.00;51.00;;;;;;5033215;28;20379;-67
2022/09/01 10:32:53;;;;;;;2.92;0.40;;;27.00;51.30;;;;;;5033154;28;20048;-67
2022/09/01 10:35:28;;;;;;;5.20;0.50;;;27.10;48.70;;;;;;5033102;28;20048;-67
2022/09/01 10:37:56;;;;;;;4.70;0.70;;;27.20;49.40;;;;;;5033385;28;20041;-67
2022/09/01 10:40:22;;;;;;;1.38;0.30;;;27.40;49.70;;;;;;5033290;28;20052;-67
2022/09/01 10:42:52;;;;;;;2.53;0.30;;;27.70;49.90;;;;;;5032947;28;20409;-67
2022/09/01 10:45:42;;;;;;;3.25;0.30;;;27.90;49.20;;;;;;5016546;28;20038;-67
2022/09/01 10:48:20;;;;;;;1.40;0.30;;;28.10;49.20;;;;;;5032841;28;20513;-67
2022/09/01 10:50:47;;;;;;;1.88;0.75;;;28.10;47.90;;;;;;5032719;28;20498;-67
2022/09/01 10:53:34;;;;;;;2.17;0.35;;;28.10;47.60;;;;;;5032773;28;20057;-67
2022/09/01 10:56:23;;;;;;;2.95;0.50;;;27.90;47.30;;;;;;5032699;28;20083;-67
2022/09/01 10:59:06;;;;;;;4.38;0.47;;;27.50;47.50;;;;;;5032589;28;20077;-67
2022/09/01 11:01:43;;;;;;;2.65;0.50;;;27.10;47.60;;;;;;5032979;28;20052;-67
2022/09/01 11:04:17;;;;;;;2.70;0.40;;;26.80;48.30;;;;;;5032662;28;20042;-67
2022/09/01 11:07:00;;;;;;;2.90;0.43;;;26.90;47.80;;;;;;5032509;28;20076;-67
2022/09/01 11:09:25;;;;;;;;;;;27.10;47.70;;;;;;5033182;28;20076;-67
2022/09/01 11:11:53;;;;;;;2.42;0.40;;;27.20;47.20;;;;;;5032367;28;19948;-67
2022/09/01 11:14:22;;;;;;;3.97;0.60;;;27.50;48.30;;;;;;5032259;28;20041;-67
2022/09/01 11:17:19;;;;;;;1.70;0.40;;;27.50;47.10;;;;;;5032240;28;20042;-67
2022/09/01 11:20:08;;;;;;;1.85;0.32;;;27.60;46.90;;;;;;5032331;28;20404;-67
2022/09/01 11:22:36;;;;;;;2.90;0.40;;;27.80;46.60;;;;;;5032453;28;20394;-67
2022/09/01 11:25:31;;;;;;;1.15;0.28;;;27.90;46.10;;;;;;5032160;28;20163;-67
2022/09/01 11:28:06;;;;;;;4.88;0.68;;;27.80;46.30;;;;;;5031988;28;20045;-67
2022/09/01 11:30:51;;;;;;;2.50;0.47;;;27.60;46.80;;;;;;5032154;28;20517;-66
2022/09/01 11:33:46;;;;;;;2.63;0.50;;;27.60;45.30;;;;;;5032151;28;20041;-66
2022/09/01 11:36:18;;;;;;;2.08;0.60;;;27.80;46.60;;;;;;5032486;28;20141;-67
2022/09/01 11:38:51;;;;;;;3.67;0.47;;;28.00;46.60;;;;;;5032156;28;20502;-67
2022/09/01 11:41:40;;;;;;;4.88;0.68;;;28.30;46.20;;;;;;5031948;28;20410;-67
2022/09/01 11:44:48;;;;;;;4.70;0.47;;;28.10;45.10;;;;;;5031641;28;20053;-67
2022/09/01 11:47:35;;;;;;;2.60;0.47;;;27.80;46.00;;;;;;5031661;28;20057;-67
2022/09/01 11:50:18;;;;;;;4.30;0.43;;;27.90;46.70;;;;;;5031916;28;20046;-67
2022/09/01 11:52:52;;;;;;;3.88;0.50;;;28.00;45.20;;;;;;5032152;28;20041;-67
2022/09/01 11:55:38;;;;;;;3.03;0.70;;;27.70;44.90;;;;;;5031842;28;20041;-67
2022/09/01 11:58:04;;;;;;;1.52;0.47;;;27.60;45.30;;;;;;5033319;28;20064;-67
2022/09/01 12:00:37;;;;;;;4.32;0.90;;;27.80;45.80;;;;;;5031974;28;20402;-67
2022/09/01 12:03:23;;;;;;;2.22;0.40;;;28.20;45.80;;;;;;5031850;28;20059;-67
2022/09/01 12:05:59;;;;;;;3.67;0.30;;;28.50;44.30;;;;;;5031799;28;20037;-67
2022/09/01 12:08:26;;;;;;;3.40;0.40;;;28.60;44.40;;;;;;5031704;28;20055;-67
2022/09/01 12:11:11;;;;;;;0.90;0.30;;;28.20;44.30;;;;;;5031969;28;20148;-67
2022/09/01 12:13:39;;;;;;;4.13;0.43;;;28.00;44.90;;;;;;5031740;28;20084;-67
2022/09/01 12:16:07;;;;;;;3.50;0.50;;;27.80;45.00;;;;;;5032447;28;20549;-67
2022/09/01 12:18:42;;;;;;;3.85;0.50;;;27.50;45.60;;;;;;5035594;28;20501;-67
2022/09/01 12:21:21;;;;;;;1.63;0.50;;;27.20;45.70;;;;;;5035649;28;20124;-67
2022/09/01 12:23:47;;;;;;;2.03;0.43;;;26.70;45.70;;;;;;5035663;28;20087;-67
2022/09/01 12:26:22;;;;;;;6.60;0.50;;;26.90;47.30;;;;;;5035543;28;20038;-67
2022/09/01 12:28:48;;;;;;;2.90;0.40;;;27.20;46.50;;;;;;5035379;28;20037;-67
2022/09/01 12:31:25;;;;;;;2.75;0.35;;;27.20;46.00;;;;;;5035569;28;20053;-67
2022/09/01 12:33:53;;;;;;;1.45;0.40;;;27.40;45.20;;;;;;5035396;28;20041;-67
2022/09/01 12:36:23;;;;;;;4.22;0.52;;;27.60;45.40;;;;;;5035240;28;20121;-67
2022/09/01 12:38:50;;;;;;;4.00;0.60;;;27.70;45.40;;;;;;5035246;28;20494;-67
2022/09/01 12:41:37;;;;;;;2.13;0.50;;;27.70;45.10;;;;;;5035233;28;20045;-67
2022/09/01 12:44:29;;;;;;;1.75;0.38;;;27.90;45.50;;;;;;5035201;28;20052;-67
2022/09/01 12:46:56;;;;;;;5.25;0.50;;;28.20;44.80;;;;;;5035125;28;20042;-67
2022/09/01 12:49:25;;;;;;;4.40;0.40;;;28.60;45.30;;;;;;5035276;28;20045;-67
2022/09/01 12:52:18;;;;;;;7.30;0.80;;;29.00;44.90;;;;;;5035075;28;20033;-67
2022/09/01 12:55:08;;;;;;;5.70;0.40;;;29.20;43.80;;;;;;5034925;28;20409;-67
2022/09/01 12:57:39;;;;;;;1.40;0.40;;;29.30;43.40;;;;;;5029030;28;20057;-67
2022/09/01 13:00:22;;;;;;;1.00;0.40;;;29.50;42.50;;;;;;5034982;28;20134;-67
2022/09/01 13:02:51;;;;;;;2.15;0.40;;;29.50;41.60;;;;;;5035171;28;20123;-67
2022/09/01 13:05:41;;;;;;;1.15;0.43;;;29.10;42.00;;;;;;5034831;28;20049;-67
2022/09/01 13:08:10;;;;;;;1.83;0.45;;;28.80;42.50;;;;;;5034827;28;20064;-67
2022/09/01 13:10:45;;;;;;;1.60;0.50;;;28.30;42.70;;;;;;5034685;28;20505;-67
2022/09/01 13:13:12;;;;;;;4.32;0.40;;;28.10;43.40;;;;;;5034976;28;20176;-67
2022/09/01 13:15:42;;;;;;;3.72;0.52;;;28.10;43.40;;;;;;5018326;28;20160;-67